Time,TemperatureF,DewpointF,PressureIn,WindDirection,WindDirectionDegrees,WindSpeedMPH,WindSpeedGustMPH,Humidity,HourlyPrecipIn,Conditions,Clouds,dailyrainin,SoftwareType,DateUTC
2013-06-09 00:12:00,59.1,57.0,29.75,East,88,0.0,0.0,93,0.10,,,0.55,weatherlink.com 1.10,2013-06-09 05:12:00,
2013-06-09 00:27:00,59.1,57.0,29.73,South,187,0.0,0.0,93,0.11,,,0.58,weatherlink.com 1.10,2013-06-09 05:27:00,
2013-06-09 00:42:00,59.0,57.0,29.72,SE,134,0.0,0.0,94,0.12,,,0.60,weatherlink.com 1.10,2013-06-09 05:42:00,
2013-06-09 00:57:00,59.1,57.0,29.71,East,82,0.0,0.0,94,0.09,,,0.60,weatherlink.com 1.10,2013-06-09 05:57:00,
2013-06-09 01:12:00,59.3,57.0,29.70,East,87,0.0,0.0,93,0.05,,,0.60,weatherlink.com 1.10,2013-06-09 06:12:00,
2013-06-09 01:27:00,59.5,57.0,29.69,ENE,65,0.0,0.0,92,0.03,,,0.01,weatherlink.com 1.10,2013-06-09 06:27:00,
2013-06-09 01:42:00,59.8,58.0,29.70,South,178,0.0,0.0,92,0.02,,,0.02,weatherlink.com 1.10,2013-06-09 06:42:00,
2013-06-09 01:57:00,60.0,58.0,29.69,ESE,111,0.0,0.0,92,0.02,,,0.02,weatherlink.com 1.10,2013-06-09 06:57:00,
2013-06-09 02:12:00,59.9,58.0,29.68,SE,124,0.0,0.0,93,0.03,,,0.03,weatherlink.com 1.10,2013-06-09 07:12:00,
2013-06-09 02:27:00,59.9,58.0,29.68,SSE,150,0.0,0.0,93,0.04,,,0.05,weatherlink.com 1.10,2013-06-09 07:27:00,
2013-06-09 02:42:00,60.0,58.0,29.67,SSE,167,0.0,0.0,94,0.03,,,0.05,weatherlink.com 1.10,2013-06-09 07:42:00,
2013-06-09 02:58:00,60.2,58.0,29.66,South,174,0.0,0.0,93,0.03,,,0.05,weatherlink.com 1.10,2013-06-09 07:58:00,
2013-06-09 03:13:00,60.1,58.0,29.66,South,188,0.0,0.0,93,0.05,,,0.08,weatherlink.com 1.10,2013-06-09 08:13:00,
2013-06-09 03:28:00,59.6,58.0,29.66,SSW,199,0.0,0.0,95,0.03,,,0.08,weatherlink.com 1.10,2013-06-09 08:28:00,
2013-06-09 03:43:00,59.7,58.0,29.65,SSW,192,0.0,0.0,95,0.03,,,0.08,weatherlink.com 1.10,2013-06-09 08:43:00,
2013-06-09 03:58:00,60.1,59.0,29.65,SSW,201,0.0,0.0,95,0.03,,,0.08,weatherlink.com 1.10,2013-06-09 08:58:00,
2013-06-09 04:13:00,60.2,59.0,29.65,SW,217,0.0,0.0,96,0.00,,,0.08,weatherlink.com 1.10,2013-06-09 09:13:00,
2013-06-09 04:28:00,60.4,59.0,29.65,SSW,206,0.0,0.0,96,0.00,,,0.08,weatherlink.com 1.10,2013-06-09 09:28:00,
2013-06-09 04:43:00,60.5,59.0,29.64,SSW,200,0.0,0.0,96,0.00,,,0.08,weatherlink.com 1.10,2013-06-09 09:43:00,
2013-06-09 04:58:00,60.7,60.0,29.65,SSW,206,0.0,0.0,96,0.00,,,0.08,weatherlink.com 1.10,2013-06-09 09:58:00,
2013-06-09 05:13:00,60.8,60.0,29.65,SSE,157,0.0,0.0,96,0.00,,,0.08,weatherlink.com 1.10,2013-06-09 10:13:00,
2013-06-09 05:28:00,61.0,60.0,29.65,SSE,164,0.0,0.0,96,0.00,,,0.08,weatherlink.com 1.10,2013-06-09 10:28:00,
2013-06-09 05:43:00,61.1,60.0,29.64,South,178,0.0,0.0,96,0.00,,,0.08,weatherlink.com 1.10,2013-06-09 10:43:00,
2013-06-09 05:58:00,61.3,60.0,29.64,SSW,193,0.0,0.0,96,0.00,,,0.08,weatherlink.com 1.10,2013-06-09 10:58:00,
2013-06-09 06:13:00,61.4,60.0,29.65,SSW,202,0.0,0.0,96,0.00,,,0.08,weatherlink.com 1.10,2013-06-09 11:13:00,
2013-06-09 06:28:00,61.5,60.0,29.65,South,181,0.0,0.0,95,0.00,,,0.08,weatherlink.com 1.10,2013-06-09 11:28:00,
2013-06-09 06:43:00,61.7,60.0,29.65,South,189,0.0,0.0,95,0.00,,,0.08,weatherlink.com 1.10,2013-06-09 11:43:00,
2013-06-09 06:58:00,61.7,60.0,29.65,WSW,238,0.0,0.0,95,0.00,,,0.08,weatherlink.com 1.10,2013-06-09 11:58:00,
2013-06-09 07:13:00,61.6,60.0,29.65,SSE,167,0.0,0.0,95,0.00,,,0.08,weatherlink.com 1.10,2013-06-09 12:13:00,
2013-06-09 07:28:00,61.8,60.0,29.65,SSE,161,0.0,0.0,94,0.00,,,0.08,weatherlink.com 1.10,2013-06-09 12:28:00,
2013-06-09 07:43:00,61.7,60.0,29.65,SSW,204,0.0,0.0,94,0.00,,,0.08,weatherlink.com 1.10,2013-06-09 12:43:00,
2013-06-09 07:58:00,61.7,60.0,29.65,SSW,209,0.0,0.0,94,0.00,,,0.08,weatherlink.com 1.10,2013-06-09 12:58:00,
2013-06-09 08:13:00,61.6,60.0,29.65,South,188,0.0,0.0,94,0.00,,,0.08,weatherlink.com 1.10,2013-06-09 13:13:00,
2013-06-09 08:28:00,61.9,60.0,29.64,South,180,0.0,0.0,94,0.00,,,0.08,weatherlink.com 1.10,2013-06-09 13:28:00,
2013-06-09 08:43:00,62.2,61.0,29.64,South,175,0.0,0.0,94,0.00,,,0.08,weatherlink.com 1.10,2013-06-09 13:43:00,
2013-06-09 08:58:00,62.0,60.0,29.64,SSW,207,0.0,0.0,94,0.00,,,0.08,weatherlink.com 1.10,2013-06-09 13:58:00,
2013-06-09 09:13:00,62.1,61.0,29.64,South,181,0.0,0.0,95,0.00,,,0.08,weatherlink.com 1.10,2013-06-09 14:13:00,
2013-06-09 09:28:00,62.2,61.0,29.64,South,188,0.0,0.0,94,0.00,,,0.08,weatherlink.com 1.10,2013-06-09 14:28:00,
2013-06-09 09:43:00,62.8,61.0,29.64,SE,142,0.0,0.0,93,0.00,,,0.08,weatherlink.com 1.10,2013-06-09 14:43:00,
2013-06-09 09:58:00,63.1,61.0,29.64,SSW,192,0.0,0.0,93,0.00,,,0.08,weatherlink.com 1.10,2013-06-09 14:58:00,
2013-06-09 10:13:00,64.5,62.0,29.64,South,173,0.0,0.0,91,0.00,,,0.08,weatherlink.com 1.10,2013-06-09 15:13:00,
2013-06-09 10:28:00,65.5,62.0,29.64,SSW,197,0.0,0.0,88,0.00,,,0.08,weatherlink.com 1.10,2013-06-09 15:28:00,
2013-06-09 10:43:00,66.2,62.0,29.64,SSW,195,0.0,0.0,85,0.00,,,0.08,weatherlink.com 1.10,2013-06-09 15:43:00,
2013-06-09 10:58:00,65.6,61.0,29.64,SSW,194,0.0,0.0,85,0.01,,,0.09,weatherlink.com 1.10,2013-06-09 15:58:00,
2013-06-09 11:13:00,63.8,61.0,29.64,SSW,200,0.0,0.0,91,0.02,,,0.10,weatherlink.com 1.10,2013-06-09 16:13:00,
2013-06-09 11:28:00,64.8,61.0,29.64,SSW,210,0.0,0.0,87,0.02,,,0.10,weatherlink.com 1.10,2013-06-09 16:28:00,
2013-06-09 11:43:00,65.0,61.0,29.64,SSW,198,0.0,0.0,88,0.02,,,0.10,weatherlink.com 1.10,2013-06-09 16:43:00,
2013-06-09 11:58:00,65.4,61.0,29.64,SSW,205,0.0,0.0,86,0.01,,,0.10,weatherlink.com 1.10,2013-06-09 16:58:00,
2013-06-09 12:13:00,64.4,61.0,29.64,South,190,0.0,0.0,87,0.00,,,0.10,weatherlink.com 1.10,2013-06-09 17:13:00,
2013-06-09 12:28:00,64.6,61.0,29.64,South,183,0.0,0.0,87,0.00,,,0.10,weatherlink.com 1.10,2013-06-09 17:28:00,
2013-06-09 12:43:00,66.3,61.0,29.64,South,188,0.0,0.0,84,0.00,,,0.10,weatherlink.com 1.10,2013-06-09 17:43:00,
2013-06-09 12:58:00,65.5,61.0,29.64,SSW,207,0.0,0.0,85,0.00,,,0.10,weatherlink.com 1.10,2013-06-09 17:58:00,
2013-06-09 13:13:00,65.9,61.0,29.64,SSW,196,0.0,0.0,83,0.00,,,0.10,weatherlink.com 1.10,2013-06-09 18:13:00,
2013-06-09 13:28:00,65.9,61.0,29.65,SW,226,0.0,0.0,84,0.00,,,0.10,weatherlink.com 1.10,2013-06-09 18:28:00,
2013-06-09 13:43:00,66.9,61.0,29.64,SSW,197,0.0,0.0,82,0.00,,,0.10,weatherlink.com 1.10,2013-06-09 18:43:00,
2013-06-09 13:58:00,67.5,62.0,29.64,South,174,0.0,0.0,82,0.00,,,0.10,weatherlink.com 1.10,2013-06-09 18:58:00,
2013-06-09 14:13:00,67.7,61.0,29.64,SSE,153,0.0,0.0,79,0.00,,,0.10,weatherlink.com 1.10,2013-06-09 19:13:00,
2013-06-09 14:28:00,68.6,62.0,29.64,South,190,0.0,0.0,78,0.00,,,0.10,weatherlink.com 1.10,2013-06-09 19:28:00,
2013-06-09 14:43:00,65.6,61.0,29.64,SSW,211,0.0,0.0,85,0.00,,,0.10,weatherlink.com 1.10,2013-06-09 19:43:00,
2013-06-09 14:58:00,63.7,61.0,29.64,South,190,0.0,0.0,91,0.04,,,0.14,weatherlink.com 1.10,2013-06-09 19:58:00,
2013-06-09 15:13:00,64.1,62.0,29.64,South,187,0.0,0.0,94,0.06,,,0.16,weatherlink.com 1.10,2013-06-09 20:13:00,
2013-06-09 15:28:00,65.9,64.0,29.64,South,186,0.0,0.0,93,0.06,,,0.16,weatherlink.com 1.10,2013-06-09 20:28:00,
2013-06-09 15:43:00,67.4,63.0,29.64,South,191,0.0,0.0,86,0.06,,,0.16,weatherlink.com 1.10,2013-06-09 20:43:00,
2013-06-09 15:58:00,68.5,63.0,29.64,SW,217,0.0,0.0,81,0.01,,,0.16,weatherlink.com 1.10,2013-06-09 20:58:00,
2013-06-09 16:13:00,68.5,62.0,29.64,SSE,159,0.0,0.0,80,0.00,,,0.16,weatherlink.com 1.10,2013-06-09 21:13:00,
2013-06-09 16:28:00,69.1,62.0,29.64,ENE,72,0.0,0.0,78,0.00,,,0.16,weatherlink.com 1.10,2013-06-09 21:28:00,
2013-06-09 16:43:00,67.5,63.0,29.64,ESE,117,0.0,0.0,86,0.00,,,0.16,weatherlink.com 1.10,2013-06-09 21:43:00,
2013-06-09 16:58:00,66.2,63.0,29.64,SSW,192,0.0,0.0,88,0.00,,,0.16,weatherlink.com 1.10,2013-06-09 21:58:00,
2013-06-09 17:13:00,65.7,63.0,29.65,SSW,196,0.0,0.0,90,0.00,,,0.16,weatherlink.com 1.10,2013-06-09 22:13:00,
2013-06-09 17:29:00,66.1,63.0,29.65,SSW,208,0.0,0.0,90,0.00,,,0.16,weatherlink.com 1.10,2013-06-09 22:29:00,
2013-06-09 17:44:00,66.9,63.0,29.65,SSW,207,0.0,0.0,88,0.00,,,0.16,weatherlink.com 1.10,2013-06-09 22:44:00,
2013-06-09 17:59:00,68.0,63.0,29.65,SSE,155,0.0,0.0,84,0.00,,,0.16,weatherlink.com 1.10,2013-06-09 22:59:00,
2013-06-09 18:14:00,70.2,63.0,29.65,NW,325,0.0,0.0,77,0.00,,,0.16,weatherlink.com 1.10,2013-06-09 23:14:00,
2013-06-09 18:29:00,70.8,63.0,29.65,North,355,0.0,0.0,76,0.00,,,0.16,weatherlink.com 1.10,2013-06-09 23:29:00,
2013-06-09 18:45:00,69.3,62.0,29.66,NNW,348,0.0,0.0,78,0.01,,,0.17,weatherlink.com 1.10,2013-06-09 23:45:00,
2013-06-09 18:59:00,68.2,63.0,29.66,NNW,340,0.0,0.0,82,0.01,,,0.17,weatherlink.com 1.10,2013-06-09 23:59:00,
2013-06-09 19:14:00,69.5,63.0,29.67,NW,316,0.0,0.0,80,0.01,,,0.17,weatherlink.com 1.10,2013-06-10 00:14:00,
2013-06-09 19:29:00,69.7,63.0,29.67,ENE,62,0.0,0.0,80,0.01,,,0.17,weatherlink.com 1.10,2013-06-10 00:29:00,
2013-06-09 19:44:00,68.9,63.0,29.67,NNE,25,0.0,0.0,81,0.00,,,0.17,weatherlink.com 1.10,2013-06-10 00:44:00,
2013-06-09 19:59:00,68.4,62.0,29.68,NNW,338,0.0,0.0,81,0.00,,,0.17,weatherlink.com 1.10,2013-06-10 00:59:00,
2013-06-09 20:14:00,67.9,62.0,29.68,NNW,340,0.0,0.0,81,0.00,,,0.17,weatherlink.com 1.10,2013-06-10 01:14:00,
2013-06-09 20:29:00,67.9,62.0,29.69,North,355,0.0,0.0,81,0.00,,,0.17,weatherlink.com 1.10,2013-06-10 01:29:00,
2013-06-09 20:44:00,67.7,62.0,29.69,North,5,0.0,0.0,81,0.00,,,0.17,weatherlink.com 1.10,2013-06-10 01:44:00,
2013-06-09 20:59:00,66.9,62.0,29.69,North,360,0.0,0.0,83,0.00,,,0.17,weatherlink.com 1.10,2013-06-10 01:59:00,
2013-06-09 21:14:00,65.8,61.0,29.70,North,360,0.0,0.0,85,0.00,,,0.17,weatherlink.com 1.10,2013-06-10 02:14:00,
2013-06-09 21:29:00,65.2,62.0,29.70,ENE,58,0.0,0.0,88,0.00,,,0.17,weatherlink.com 1.10,2013-06-10 02:29:00,
2013-06-09 21:44:00,64.8,62.0,29.70,East,96,0.0,0.0,90,0.00,,,0.17,weatherlink.com 1.10,2013-06-10 02:44:00,
2013-06-09 21:59:00,64.3,61.0,29.71,ESE,111,0.0,0.0,90,0.00,,,0.17,weatherlink.com 1.10,2013-06-10 02:59:00,
2013-06-09 22:14:00,64.0,61.0,29.72,NE,43,0.0,0.0,91,0.00,,,0.17,weatherlink.com 1.10,2013-06-10 03:14:00,
2013-06-09 22:29:00,63.6,61.0,29.72,ENE,57,0.0,0.0,91,0.00,,,0.17,weatherlink.com 1.10,2013-06-10 03:29:00,
2013-06-09 22:44:00,63.3,61.0,29.72,ENE,65,0.0,0.0,92,0.00,,,0.17,weatherlink.com 1.10,2013-06-10 03:44:00,
2013-06-09 22:59:00,63.1,61.0,29.72,ENE,59,0.0,0.0,92,0.00,,,0.17,weatherlink.com 1.10,2013-06-10 03:59:00,
2013-06-09 23:14:00,62.8,61.0,29.72,ENE,59,0.0,0.0,92,0.00,,,0.17,weatherlink.com 1.10,2013-06-10 04:14:00,
2013-06-09 23:29:00,62.6,61.0,29.73,ENE,60,0.0,0.0,93,0.00,,,0.17,weatherlink.com 1.10,2013-06-10 04:29:00,
2013-06-09 23:44:00,62.4,60.0,29.73,ENE,58,0.0,0.0,93,0.00,,,0.17,weatherlink.com 1.10,2013-06-10 04:44:00,
2013-06-09 23:59:00,62.1,60.0,29.73,ENE,58,0.0,0.0,93,0.00,,,0.17,weatherlink.com 1.10,2013-06-10 04:59:00,